Time;durP1;ratioP1;P1;durP2;ratioP2;P2;SDS_P1;SDS_P2;PMS_P1;PMS_P2;Temp;Humidity;BMP_temperature;BMP_pressure;BME280_temperature;BME280_humidity;BME280_pressure;Samples;Min_cycle;Max_cycle;Signal;HPM_P1;HPM_P2
2022/11/13 00:01:53;;;;;;;10.50;6.70;;;21.10;68.50;;;;;;214662;1279;22613;-55
2022/11/13 00:07:18;;;;;;;10.70;6.70;;;21.10;68.90;;;;;;215119;1279;25550;-56
2022/11/13 00:12:42;;;;;;;12.30;6.40;;;21.10;68.40;;;;;;214824;1279;25542;-54
2022/11/13 00:18:07;;;;;;;10.20;6.60;;;21.10;68.70;;;;;;214680;1279;25380;-55
2022/11/13 00:23:33;;;;;;;12.00;6.20;;;21.10;68.60;;;;;;214884;1295;22716;-54
2022/11/13 00:29:01;;;;;;;11.60;6.50;;;21.10;68.40;;;;;;214912;1272;22502;-56
2022/11/13 00:34:23;;;;;;;9.20;6.50;;;21.00;68.50;;;;;;214780;1272;24008;-55
2022/11/13 00:40:06;;;;;;;13.20;6.60;;;21.00;68.30;;;;;;214845;1278;24253;-54
2022/11/13 00:45:29;;;;;;;10.20;7.10;;;20.90;68.20;;;;;;215027;1279;23844;-55
2022/11/13 00:50:51;;;;;;;10.40;6.70;;;20.90;68.20;;;;;;214625;1279;25453;-56
2022/11/13 00:56:13;;;;;;;12.70;6.40;;;20.90;68.20;;;;;;215374;1279;22613;-55
2022/11/13 01:01:36;;;;;;;8.90;6.40;;;20.90;68.60;;;;;;214551;1272;25872;-54
2022/11/13 01:06:58;;;;;;;8.50;6.20;;;20.90;68.00;;;;;;214656;1279;23231;-55
2022/11/13 01:12:21;;;;;;;8.40;6.00;;;20.90;68.00;;;;;;214792;1295;23859;-55
2022/11/13 01:17:44;;;;;;;11.50;6.30;;;20.90;67.90;;;;;;215032;1285;25436;-55
2022/11/13 01:23:06;;;;;;;11.50;6.80;;;20.80;67.90;;;;;;214878;1297;24240;-56
2022/11/13 01:28:29;;;;;;;8.90;6.00;;;20.80;67.90;;;;;;214769;1275;22456;-55
2022/11/13 01:33:52;;;;;;;8.50;6.10;;;20.80;68.00;;;;;;214842;1279;25341;-55
2022/11/13 01:39:15;;;;;;;8.40;6.20;;;20.80;67.90;;;;;;214509;1279;25282;-54
2022/11/13 01:44:51;;;;;;;8.50;5.90;;;20.80;67.90;;;;;;216343;1288;22482;-57
2022/11/13 01:50:14;;;;;;;9.00;5.80;;;20.80;67.80;;;;;;214646;1290;22477;-54
2022/11/13 01:55:36;;;;;;;8.50;5.90;;;20.80;67.70;;;;;;214815;1279;24818;-56
2022/11/13 02:00:59;;;;;;;8.40;5.80;;;20.70;67.80;;;;;;214875;1280;24239;-56
2022/11/13 02:06:23;;;;;;;7.90;6.10;;;20.90;68.00;;;;;;214786;1279;22454;-55
2022/11/13 02:11:45;;;;;;;7.60;5.30;;;21.10;67.00;;;;;;214999;1272;24165;-56
2022/11/13 02:17:13;;;;;;;9.50;5.50;;;21.40;66.10;;;;;;214876;1272;26617;-54
2022/11/13 02:23:00;;;;;;;7.90;5.20;;;21.50;65.70;;;;;;214860;1286;26462;-55
2022/11/13 02:28:22;;;;;;;9.00;5.80;;;21.70;65.40;;;;;;214918;1280;25311;-56
2022/11/13 02:33:44;;;;;;;7.30;5.40;;;21.70;65.20;;;;;;214940;1286;26489;-55
2022/11/13 02:39:10;;;;;;;8.40;5.10;;;21.80;65.00;;;;;;214953;1280;23885;-56
2022/11/13 02:44:32;;;;;;;7.60;5.00;;;21.90;64.80;;;;;;214873;1280;22454;-55
2022/11/13 02:49:54;;;;;;;6.80;5.00;;;22.00;64.90;;;;;;214904;1280;25700;-55
2022/11/13 02:55:18;;;;;;;7.00;5.00;;;22.00;64.40;;;;;;215065;1280;22470;-56
2022/11/13 03:00:40;;;;;;;7.60;5.20;;;22.10;64.30;;;;;;214871;1278;26249;-54
2022/11/13 03:06:03;;;;;;;7.80;5.30;;;22.20;64.10;;;;;;214977;1295;23980;-56
2022/11/13 03:11:25;;;;;;;7.50;5.20;;;22.20;64.00;;;;;;214936;1282;24236;-56
2022/11/13 03:16:48;;;;;;;6.70;4.80;;;22.30;63.90;;;;;;214925;1279;22836;-56
2022/11/13 03:22:11;;;;;;;7.80;4.70;;;22.40;63.80;;;;;;214881;1280;25402;-55
2022/11/13 03:27:33;;;;;;;7.30;4.70;;;22.40;63.80;;;;;;214842;1275;24299;-56
2022/11/13 03:32:56;;;;;;;7.00;4.60;;;22.40;63.70;;;;;;214605;1295;23873;-53
2022/11/13 03:38:18;;;;;;;7.60;5.00;;;22.50;63.50;;;;;;215692;1272;25556;-55
2022/11/13 03:43:41;;;;;;;5.90;4.10;;;22.60;63.30;;;;;;214782;1295;23872;-55
2022/11/13 03:49:04;;;;;;;6.30;4.80;;;22.50;63.20;;;;;;214975;1280;26480;-56
2022/11/13 03:54:26;;;;;;;6.90;5.30;;;22.50;63.40;;;;;;214919;1272;24398;-56
2022/11/13 03:59:48;;;;;;;6.90;4.60;;;22.40;63.70;;;;;;214924;1273;26565;-55
2022/11/13 04:05:10;;;;;;;6.30;4.20;;;22.40;64.40;;;;;;214931;1300;25389;-55
2022/11/13 04:10:33;;;;;;;5.90;4.60;;;22.30;64.30;;;;;;214915;1272;25310;-56
2022/11/13 04:15:55;;;;;;;6.80;4.60;;;22.20;65.20;;;;;;214890;1280;23847;-56
2022/11/13 04:21:18;;;;;;;7.10;4.70;;;22.20;64.60;;;;;;214918;1279;26533;-56
2022/11/13 04:26:40;;;;;;;6.50;4.60;;;22.10;64.90;;;;;;214955;1272;24190;-56
2022/11/13 04:32:03;;;;;;;5.90;4.60;;;22.00;64.90;;;;;;214923;1279;25480;-56
2022/11/13 04:37:25;;;;;;;6.20;4.80;;;21.90;65.10;;;;;;214880;1300;25459;-55
2022/11/13 04:42:47;;;;;;;6.90;4.60;;;21.90;65.20;;;;;;214913;1280;23995;-55
2022/11/13 04:48:10;;;;;;;6.50;5.10;;;21.80;65.40;;;;;;214857;1272;25313;-55
2022/11/13 04:53:33;;;;;;;8.40;4.50;;;21.80;65.80;;;;;;214898;1272;26589;-55
2022/11/13 04:58:55;;;;;;;6.20;4.10;;;21.70;65.80;;;;;;214904;1286;25505;-55
2022/11/13 05:04:18;;;;;;;6.20;4.20;;;21.70;65.90;;;;;;214955;1280;25429;-55
2022/11/13 05:09:41;;;;;;;5.10;4.10;;;21.70;65.90;;;;;;214952;1286;25251;-55
2022/11/13 05:15:04;;;;;;;6.60;4.80;;;21.60;66.00;;;;;;214927;1282;25541;-56
2022/11/13 05:20:26;;;;;;;8.70;4.90;;;21.60;66.10;;;;;;215007;1272;25412;-58
2022/11/13 05:25:48;;;;;;;6.20;4.20;;;21.50;66.10;;;;;;214976;1286;23847;-55
2022/11/13 05:31:13;;;;;;;6.60;4.80;;;21.50;66.10;;;;;;214937;1286;24199;-56
2022/11/13 05:36:36;;;;;;;6.70;4.80;;;21.50;66.20;;;;;;214797;1279;25865;-56
2022/11/13 05:41:59;;;;;;;7.10;4.70;;;21.40;66.30;;;;;;214957;1279;25313;-55
2022/11/13 05:47:21;;;;;;;5.60;4.40;;;21.40;66.50;;;;;;215031;1286;25361;-56
2022/11/13 05:52:46;;;;;;;7.60;4.40;;;21.40;66.60;;;;;;214878;1279;24253;-55
2022/11/13 05:58:11;;;;;;;6.10;4.40;;;21.30;66.40;;;;;;214896;1279;24294;-55
2022/11/13 06:03:35;;;;;;;8.70;5.10;;;21.30;66.50;;;;;;214878;1286;25308;-55
2022/11/13 06:08:59;;;;;;;5.50;4.50;;;21.20;66.40;;;;;;214754;1286;206752;-56
2022/11/13 06:14:22;;;;;;;6.10;4.40;;;21.20;66.40;;;;;;215000;1279;25344;-57
2022/11/13 06:19:44;;;;;;;6.00;4.70;;;21.20;66.60;;;;;;215011;1300;26484;-55
2022/11/13 06:25:07;;;;;;;5.70;4.60;;;21.20;66.50;;;;;;214843;1292;25280;-56
2022/11/13 06:30:30;;;;;;;5.20;4.20;;;21.20;66.60;;;;;;214944;1285;24247;-55
2022/11/13 06:35:52;;;;;;;6.30;4.80;;;21.10;66.40;;;;;;214944;1280;25325;-58
2022/11/13 06:41:18;;;;;;;6.00;4.70;;;21.10;66.70;;;;;;214982;1279;25410;-57
2022/11/13 06:46:40;;;;;;;5.90;4.50;;;21.10;66.70;;;;;;214749;1279;25280;-55
2022/11/13 06:52:03;;;;;;;8.20;4.30;;;21.10;66.70;;;;;;214843;1284;22448;-55
2022/11/13 06:57:25;;;;;;;7.10;4.30;;;21.10;66.30;;;;;;215044;1286;26467;-55
2022/11/13 07:02:52;;;;;;;5.50;4.40;;;21.10;66.70;;;;;;214865;1279;22975;-56
2022/11/13 07:08:17;;;;;;;6.80;4.90;;;21.00;67.20;;;;;;214908;1277;22470;-56
2022/11/13 07:13:42;;;;;;;6.20;4.70;;;21.00;66.70;;;;;;215125;1280;22463;-56
2022/11/13 07:19:06;;;;;;;6.80;5.00;;;21.00;67.00;;;;;;214849;1286;22459;-55
2022/11/13 07:24:35;;;;;;;6.70;5.00;;;21.00;66.70;;;;;;215154;1295;22458;-55
2022/11/13 07:30:02;;;;;;;6.90;4.60;;;21.00;66.70;;;;;;214991;1278;25442;-56
2022/11/13 07:35:30;;;;;;;10.90;4.90;;;20.90;66.90;;;;;;214766;1280;23995;-55
2022/11/13 07:40:57;;;;;;;6.70;4.90;;;20.90;66.90;;;;;;215055;1280;24287;-58
2022/11/13 07:46:21;;;;;;;9.60;4.70;;;20.90;66.90;;;;;;215064;1280;24659;-55
2022/11/13 07:51:44;;;;;;;7.10;4.50;;;20.90;66.90;;;;;;214838;1280;22471;-55
2022/11/13 07:57:11;;;;;;;9.50;4.40;;;20.90;67.00;;;;;;214880;1273;24032;-56
2022/11/13 08:02:36;;;;;;;7.90;4.70;;;20.90;67.00;;;;;;215048;1280;24304;-55
2022/11/13 08:07:59;;;;;;;8.00;4.50;;;20.90;66.90;;;;;;214716;1280;23834;-55
2022/11/13 08:13:25;;;;;;;7.90;4.60;;;21.30;66.20;;;;;;214913;1282;22460;-54
2022/11/13 08:18:50;;;;;;;9.30;4.80;;;21.50;65.70;;;;;;214986;1280;24191;-54
2022/11/13 08:24:23;;;;;;;8.00;4.60;;;21.60;64.80;;;;;;214994;1286;22673;-55
2022/11/13 08:29:59;;;;;;;7.60;4.20;;;21.90;64.50;;;;;;214925;1279;24260;-54
2022/11/13 08:35:25;;;;;;;8.10;4.40;;;21.90;64.10;;;;;;215010;1275;23875;-56
2022/11/13 08:40:55;;;;;;;5.20;4.00;;;22.00;63.80;;;;;;214865;1276;22644;-56
2022/11/13 08:46:46;;;;;;;4.30;3.70;;;22.20;63.60;;;;;;214898;1278;22890;-53
2022/11/13 08:52:24;;;;;;;8.30;4.20;;;22.30;63.60;;;;;;214889;1276;24352;-54
2022/11/13 08:57:50;;;;;;;6.30;4.10;;;22.40;63.10;;;;;;214705;1275;23408;-55
2022/11/13 09:03:17;;;;;;;7.10;3.90;;;22.40;63.00;;;;;;214821;1285;25039;-55
2022/11/13 09:08:55;;;;;;;6.40;4.70;;;22.50;62.90;;;;;;215034;1279;22479;-56
2022/11/13 09:14:27;;;;;;;5.40;3.80;;;22.50;62.80;;;;;;214872;1279;22643;-56
2022/11/13 09:20:14;;;;;;;6.30;3.90;;;22.60;62.50;;;;;;214975;1285;25511;-55
2022/11/13 09:26:06;;;;;;;5.80;4.40;;;22.70;62.50;;;;;;214342;1275;24393;-54
2022/11/13 09:31:39;;;;;;;8.20;4.50;;;22.60;62.40;;;;;;214793;1272;22463;-54
2022/11/13 09:37:02;;;;;;;9.50;5.60;;;22.60;62.30;;;;;;214704;1276;22478;-55
2022/11/13 09:42:27;;;;;;;7.40;5.00;;;22.50;62.30;;;;;;214874;1286;23551;-55
2022/11/13 09:47:52;;;;;;;9.00;5.80;;;22.40;62.30;;;;;;214843;1275;25548;-54
2022/11/13 09:53:15;;;;;;;7.40;5.70;;;22.40;62.10;;;;;;214750;1280;23852;-55
2022/11/13 09:58:48;;;;;;;11.30;6.70;;;22.40;62.30;;;;;;214740;1279;24431;-55
2022/11/13 10:04:14;;;;;;;10.00;6.30;;;22.40;63.30;;;;;;214788;1280;24897;-53
2022/11/13 10:09:56;;;;;;;11.70;6.70;;;22.30;62.50;;;;;;214940;1279;26059;-52
2022/11/13 10:15:25;;;;;;;10.10;6.60;;;22.20;62.90;;;;;;214930;1280;25446;-54
2022/11/13 10:20:56;;;;;;;10.10;7.50;;;22.20;62.40;;;;;;214917;1276;23846;-54
2022/11/13 10:26:34;;;;;;;9.90;6.90;;;22.10;62.60;;;;;;214955;1280;24348;-52
2022/11/13 10:32:50;;;;;;;9.30;6.30;;;22.10;62.80;;;;;;214653;1275;24047;-51
2022/11/13 10:38:35;;;;;;;10.50;7.40;;;22.10;62.50;;;;;;214837;1283;24249;-54
2022/11/13 10:44:34;;;;;;;10.40;7.40;;;22.00;62.50;;;;;;214766;1279;23364;-53
2022/11/13 10:50:08;;;;;;;11.90;7.30;;;22.00;62.50;;;;;;214761;1279;25575;-54
2022/11/13 10:55:39;;;;;;;10.80;7.20;;;22.00;62.20;;;;;;214792;1272;22710;-53
2022/11/13 11:01:13;;;;;;;9.70;7.80;;;21.90;62.10;;;;;;214889;1286;24275;-55
2022/11/13 11:06:38;;;;;;;11.50;7.90;;;21.90;62.40;;;;;;214921;1275;22585;-54
2022/11/13 11:12:24;;;;;;;13.40;8.30;;;21.80;62.10;;;;;;214813;1280;25271;-52
2022/11/13 11:18:05;;;;;;;11.40;8.30;;;21.70;62.30;;;;;;214817;1283;24468;-54
2022/11/13 11:24:02;;;;;;;12.00;8.60;;;21.70;62.80;;;;;;214823;1272;25505;-50
2022/11/13 11:29:38;;;;;;;15.70;8.60;;;21.60;62.40;;;;;;214746;1288;25637;-52
2022/11/13 11:35:25;;;;;;;12.30;8.70;;;21.60;62.20;;;;;;214900;1280;25482;-51
2022/11/13 11:40:56;;;;;;;11.20;8.40;;;21.60;62.40;;;;;;215011;1280;22596;-58
2022/11/13 11:46:23;;;;;;;11.20;7.80;;;21.50;62.70;;;;;;215070;1285;24247;-53
2022/11/13 11:52:11;;;;;;;16.20;8.20;;;21.50;62.70;;;;;;215009;1287;22840;-50
2022/11/13 11:58:25;;;;;;;17.20;9.10;;;21.50;62.50;;;;;;214961;1299;23996;-50
2022/11/13 12:04:03;;;;;;;13.80;8.40;;;21.50;62.10;;;;;;214725;1283;22746;-53
2022/11/13 12:09:30;;;;;;;13.90;9.40;;;21.50;62.20;;;;;;214974;1280;24245;-52
2022/11/13 12:15:14;;;;;;;20.40;9.70;;;21.40;62.10;;;;;;215020;1282;22466;-56
2022/11/13 12:20:42;;;;;;;16.20;9.70;;;21.40;62.00;;;;;;214878;1285;24253;-52
2022/11/13 12:26:44;;;;;;;14.20;9.10;;;21.30;62.60;;;;;;214796;1280;25337;-55
2022/11/13 12:32:24;;;;;;;13.30;10.30;;;21.30;62.60;;;;;;214839;1283;24277;-54
2022/11/13 12:37:49;;;;;;;12.60;9.80;;;21.20;62.60;;;;;;214922;1280;22492;-53
2022/11/13 12:43:15;;;;;;;19.00;10.30;;;21.20;62.90;;;;;;214710;1283;23855;-55
2022/11/13 12:48:48;;;;;;;15.10;10.50;;;21.20;62.50;;;;;;214682;1275;25591;-51
2022/11/13 12:54:11;;;;;;;13.80;9.60;;;21.20;62.40;;;;;;214597;1286;22820;-48
2022/11/13 12:59:40;;;;;;;15.60;9.90;;;21.20;62.30;;;;;;214644;1283;24179;-53
2022/11/13 13:05:12;;;;;;;12.50;9.00;;;21.20;62.20;;;;;;214569;1275;22459;-52
2022/11/13 13:10:52;;;;;;;15.90;10.30;;;21.30;61.60;;;;;;214602;1283;23840;-55
2022/11/13 13:16:26;;;;;;;15.30;9.50;;;21.30;61.70;;;;;;214643;1283;22598;-53
2022/11/13 13:21:50;;;;;;;18.70;10.10;;;21.30;61.70;;;;;;214605;1280;25308;-52
2022/11/13 13:27:37;;;;;;;14.60;10.60;;;21.30;61.60;;;;;;214896;1279;26459;-50
2022/11/13 13:33:13;;;;;;;14.70;10.10;;;21.20;61.80;;;;;;215009;1283;25121;-49
2022/11/13 13:38:54;;;;;;;21.00;11.20;;;21.20;61.80;;;;;;214800;1299;23991;-55
2022/11/13 13:44:52;;;;;;;21.20;11.50;;;21.20;62.00;;;;;;214814;1278;25255;-52
2022/11/13 13:50:20;;;;;;;21.30;11.20;;;21.20;61.90;;;;;;214875;1285;25348;-49
2022/11/13 13:55:55;;;;;;;22.90;10.90;;;21.20;61.70;;;;;;214876;1296;25331;-51
2022/11/13 14:01:54;;;;;;;18.50;10.60;;;21.10;62.10;;;;;;214840;1287;23516;-50
2022/11/13 14:07:31;;;;;;;17.60;10.90;;;21.10;61.70;;;;;;214857;1286;23332;-49
2022/11/13 14:12:59;;;;;;;18.80;12.10;;;21.20;62.00;;;;;;214742;1295;23374;-49
2022/11/13 14:18:22;;;;;;;18.40;10.90;;;21.20;62.40;;;;;;214716;1284;22481;-48
2022/11/13 14:23:48;;;;;;;20.40;11.80;;;21.10;63.70;;;;;;214588;1279;25408;-49
2022/11/13 14:29:44;;;;;;;22.10;12.20;;;21.20;63.30;;;;;;214599;1286;23872;-45
2022/11/13 14:35:19;;;;;;;18.40;11.00;;;21.10;63.30;;;;;;214914;1278;22499;-43
2022/11/13 14:40:53;;;;;;;19.20;11.50;;;21.20;64.50;;;;;;214845;1278;24008;-44
2022/11/13 14:46:43;;;;;;;22.40;11.60;;;21.10;64.80;;;;;;214812;1281;22482;-43
2022/11/13 14:52:05;;;;;;;19.60;11.70;;;21.10;65.10;;;;;;214914;1286;24472;-43
2022/11/13 14:57:28;;;;;;;19.60;11.00;;;21.10;64.30;;;;;;214907;1278;25505;-45
2022/11/13 15:02:54;;;;;;;23.60;13.20;;;21.10;64.40;;;;;;214907;1278;22460;-46
2022/11/13 15:08:34;;;;;;;22.30;12.10;;;21.10;64.20;;;;;;214795;1283;22480;-51
2022/11/13 15:14:18;;;;;;;22.50;12.60;;;21.00;63.70;;;;;;214848;1280;22446;-48
2022/11/13 15:19:47;;;;;;;20.80;11.80;;;21.00;64.40;;;;;;215012;1280;24046;-49
2022/11/13 15:25:17;;;;;;;22.60;13.70;;;21.00;63.80;;;;;;214939;1275;22471;-50
2022/11/13 15:30:52;;;;;;;24.40;13.70;;;21.10;63.80;;;;;;214788;1280;22548;-50
2022/11/13 15:36:46;;;;;;;;;;;;;;;;;;;;;
2022/11/13 15:42:16;;;;;;;23.40;14.00;;;21.00;63.50;;;;;;214908;1275;23497;-49
2022/11/13 15:47:57;;;;;;;25.70;14.20;;;21.10;63.50;;;;;;214933;1283;23199;-51
2022/11/13 15:53:21;;;;;;;26.40;14.10;;;21.00;63.50;;;;;;215027;1280;22838;-49
2022/11/13 15:58:50;;;;;;;26.50;14.40;;;21.00;63.60;;;;;;214885;1272;26602;-52
2022/11/13 16:04:31;;;;;;;;;;;21.00;63.50;;;;;;214990;1297;23823;-54
2022/11/13 16:10:30;;;;;;;29.60;14.60;;;20.90;63.50;;;;;;214764;1299;23918;-52
2022/11/13 16:16:01;;;;;;;25.50;14.00;;;20.90;63.70;;;;;;215153;1286;23356;-56
2022/11/13 16:21:48;;;;;;;25.70;14.30;;;20.90;63.50;;;;;;214865;1286;22505;-55
2022/11/13 16:27:22;;;;;;;26.70;14.60;;;20.90;63.30;;;;;;214887;1285;22478;-53
2022/11/13 16:32:52;;;;;;;22.90;14.30;;;20.90;63.20;;;;;;214750;1279;25412;-54
2022/11/13 16:38:25;;;;;;;25.50;15.10;;;20.90;62.80;;;;;;214782;1275;26465;-54
2022/11/13 16:43:59;;;;;;;32.00;15.80;;;20.90;62.80;;;;;;214770;1279;22969;-55
2022/11/13 16:49:39;;;;;;;27.30;15.80;;;20.80;63.70;;;;;;214982;1284;22457;-56
2022/11/13 16:55:09;;;;;;;29.80;15.90;;;20.90;64.70;;;;;;214860;1272;23142;-56
2022/11/13 17:00:39;;;;;;;29.50;16.00;;;20.90;64.80;;;;;;214622;1275;23948;-56
2022/11/13 17:06:23;;;;;;;28.80;16.00;;;20.90;64.60;;;;;;214849;1280;23551;-57
2022/11/13 17:11:49;;;;;;;40.40;16.40;;;20.80;64.80;;;;;;214671;1285;22679;-51
2022/11/13 17:17:15;;;;;;;32.60;18.00;;;20.80;64.50;;;;;;214829;1278;22478;-55
2022/11/13 17:22:47;;;;;;;26.60;15.40;;;20.80;64.80;;;;;;214737;1300;25287;-57
2022/11/13 17:28:12;;;;;;;34.10;14.40;;;21.00;64.30;;;;;;214698;1275;22507;-55
2022/11/13 17:33:36;;;;;;;23.60;13.90;;;21.40;64.00;;;;;;214974;1278;24312;-56
2022/11/13 17:39:04;;;;;;;23.30;15.20;;;21.60;63.00;;;;;;214822;1279;23858;-56
2022/11/13 17:44:59;;;;;;;;;;;;;;;;;;;;;
2022/11/13 17:50:32;;;;;;;28.10;14.40;;;21.90;62.60;;;;;;214758;1293;23851;-55
2022/11/13 17:56:12;;;;;;;26.80;15.00;;;22.00;62.60;;;;;;214663;1279;24250;-54
2022/11/13 18:01:50;;;;;;;26.10;13.70;;;22.10;62.80;;;;;;214765;1279;25298;-59
2022/11/13 18:07:38;;;;;;;25.10;14.50;;;22.30;62.30;;;;;;214653;1280;22820;-57
2022/11/13 18:13:07;;;;;;;24.70;14.50;;;22.30;62.20;;;;;;214563;1275;328593;-58
2022/11/13 18:18:42;;;;;;;25.30;15.00;;;22.40;61.80;;;;;;214974;1280;22749;-57
2022/11/13 18:24:19;;;;;;;26.60;14.40;;;22.50;61.50;;;;;;214948;1286;23843;-53
2022/11/13 18:29:44;;;;;;;25.10;14.90;;;22.60;61.30;;;;;;214638;1272;24433;-56
2022/11/13 18:35:13;;;;;;;24.70;14.80;;;22.70;61.20;;;;;;214729;1284;22576;-56
2022/11/13 18:40:47;;;;;;;24.10;13.90;;;22.70;61.50;;;;;;214727;1280;22556;-51
2022/11/13 18:46:33;;;;;;;21.20;14.10;;;22.70;61.20;;;;;;214849;1278;22651;-57
2022/11/13 18:52:03;;;;;;;22.70;13.70;;;22.60;61.50;;;;;;214975;1269;24244;-52
2022/11/13 18:57:36;;;;;;;23.10;14.30;;;22.50;61.80;;;;;;214823;1286;22468;-52
2022/11/13 19:03:15;;;;;;;26.60;14.10;;;22.40;62.80;;;;;;214790;1272;22701;-50
2022/11/13 19:08:39;;;;;;;22.70;14.80;;;22.40;63.30;;;;;;214585;1278;26459;-52
2022/11/13 19:14:16;;;;;;;24.00;14.30;;;22.40;63.80;;;;;;214665;1278;23883;-51
2022/11/13 19:19:58;;;;;;;21.20;14.20;;;22.30;63.60;;;;;;214677;1278;23955;-54
2022/11/13 19:25:31;;;;;;;20.20;13.80;;;22.30;63.60;;;;;;214707;1284;22539;-53
2022/11/13 19:31:10;;;;;;;19.90;14.60;;;22.20;63.70;;;;;;214775;1279;26559;-53
2022/11/13 19:36:39;;;;;;;20.80;14.20;;;22.10;63.80;;;;;;214646;1279;23848;-55
2022/11/13 19:42:04;;;;;;;24.20;15.00;;;22.00;63.80;;;;;;214738;1279;22608;-52
2022/11/13 19:47:28;;;;;;;24.20;15.10;;;22.00;64.50;;;;;;214682;1279;24002;-54
2022/11/13 19:52:53;;;;;;;23.00;14.50;;;21.90;65.00;;;;;;214665;1272;23853;-53
2022/11/13 19:58:16;;;;;;;23.50;15.00;;;21.90;65.20;;;;;;214684;1286;22462;-54
2022/11/13 20:03:43;;;;;;;24.00;14.20;;;21.80;65.20;;;;;;214690;1279;25426;-53
2022/11/13 20:09:09;;;;;;;20.40;14.40;;;21.80;65.20;;;;;;214723;1272;24321;-55
2022/11/13 20:14:47;;;;;;;23.90;15.40;;;21.80;64.80;;;;;;214544;1280;23856;-55
2022/11/13 20:20:14;;;;;;;26.10;15.60;;;21.70;64.60;;;;;;214771;1279;26482;-54
2022/11/13 20:26:05;;;;;;;26.00;16.40;;;21.70;64.70;;;;;;214862;1281;24270;-54
2022/11/13 20:31:33;;;;;;;28.70;15.10;;;21.60;64.70;;;;;;214818;1280;25280;-53
2022/11/13 20:36:55;;;;;;;28.90;15.00;;;21.60;66.70;;;;;;214812;1286;25400;-54
2022/11/13 20:42:26;;;;;;;23.10;14.60;;;21.60;65.70;;;;;;214772;1272;25322;-50
2022/11/13 20:47:57;;;;;;;28.80;16.70;;;21.50;65.60;;;;;;214751;1280;24336;-53
2022/11/13 20:53:23;;;;;;;25.20;16.00;;;21.50;65.00;;;;;;214858;1272;24005;-54
2022/11/13 20:58:55;;;;;;;31.90;17.00;;;21.40;64.60;;;;;;214978;1273;25315;-59
2022/11/13 21:04:21;;;;;;;26.20;15.40;;;21.40;64.50;;;;;;214922;1278;25563;-54
2022/11/13 21:09:45;;;;;;;25.90;15.00;;;21.40;64.60;;;;;;214777;1280;25428;-55
2022/11/13 21:15:13;;;;;;;22.00;14.40;;;21.40;64.60;;;;;;214832;1275;25437;-56
2022/11/13 21:20:40;;;;;;;26.50;14.60;;;21.30;64.70;;;;;;214789;1272;24160;-55
2022/11/13 21:26:17;;;;;;;23.90;14.70;;;21.30;64.80;;;;;;214688;1277;22860;-54
2022/11/13 21:31:40;;;;;;;24.70;16.40;;;21.20;65.00;;;;;;214854;1272;25271;-56
2022/11/13 21:37:11;;;;;;;23.70;16.00;;;21.20;65.10;;;;;;214806;1286;25383;-54
2022/11/13 21:42:42;;;;;;;35.80;15.00;;;21.10;65.10;;;;;;214781;1280;23863;-54
2022/11/13 21:48:05;;;;;;;23.90;13.50;;;21.10;66.80;;;;;;214776;1279;25403;-55
2022/11/13 21:53:27;;;;;;;19.60;14.80;;;21.20;66.40;;;;;;214778;1288;23998;-55
2022/11/13 21:58:50;;;;;;;26.90;15.00;;;21.10;66.20;;;;;;214814;1275;25261;-55
2022/11/13 22:04:12;;;;;;;23.90;15.80;;;21.10;66.10;;;;;;214804;1276;22472;-55
2022/11/13 22:09:41;;;;;;;28.00;14.40;;;21.10;66.10;;;;;;215219;1272;24393;-57
2022/11/13 22:15:03;;;;;;;24.70;16.40;;;21.10;66.20;;;;;;216151;1278;22639;-56
2022/11/13 22:20:26;;;;;;;25.70;14.30;;;21.00;66.10;;;;;;214720;1300;25453;-55
2022/11/13 22:25:51;;;;;;;20.60;14.30;;;21.00;66.20;;;;;;214786;1278;25328;-55
2022/11/13 22:31:24;;;;;;;23.40;14.50;;;20.90;66.10;;;;;;214690;1286;22860;-55
2022/11/13 22:36:46;;;;;;;19.20;12.60;;;20.90;66.00;;;;;;214765;1285;25710;-55
2022/11/13 22:42:09;;;;;;;20.90;15.00;;;20.90;66.00;;;;;;214991;1285;24167;-57
2022/11/13 22:47:33;;;;;;;19.10;13.40;;;20.90;66.20;;;;;;214762;1280;22985;-56
2022/11/13 22:53:02;;;;;;;19.20;13.40;;;20.80;66.20;;;;;;214998;1279;24224;-56
2022/11/13 22:58:31;;;;;;;20.10;13.20;;;20.80;66.20;;;;;;214778;1272;22601;-55
2022/11/13 23:03:56;;;;;;;20.80;12.50;;;20.80;66.20;;;;;;214794;1278;22586;-56
2022/11/13 23:09:22;;;;;;;20.10;13.20;;;20.80;66.30;;;;;;214957;1279;24465;-55
2022/11/13 23:14:53;;;;;;;19.50;12.20;;;20.70;66.20;;;;;;214803;1279;24236;-54
2022/11/13 23:20:17;;;;;;;19.70;12.90;;;20.70;66.20;;;;;;215000;1275;24247;-56
2022/11/13 23:25:45;;;;;;;17.10;12.10;;;20.70;66.30;;;;;;214940;1279;24292;-56
2022/11/13 23:31:07;;;;;;;20.20;12.70;;;20.90;65.80;;;;;;214765;1272;23932;-54
2022/11/13 23:36:33;;;;;;;18.50;11.40;;;21.00;65.40;;;;;;214753;1272;22460;-55
2022/11/13 23:41:56;;;;;;;18.30;11.40;;;21.20;65.10;;;;;;214771;1278;23949;-56
2022/11/13 23:47:18;;;;;;;19.50;11.80;;;21.50;68.70;;;;;;214670;1285;24005;-56
2022/11/13 23:52:41;;;;;;;19.90;12.40;;;21.80;66.00;;;;;;214625;1279;22513;-56
2022/11/13 23:58:06;;;;;;;22.10;12.40;;;22.00;65.40;;;;;;214648;1272;22659;-56
